• Join FlightAware (Why Join?)
  • Login
  • US Flag 
05:29PM EDT


 

Airport Tracker/Info


-or-


 

Live Flight TrackerFlight Track Log ✈ SWA1319 ✈ 16-Apr-2013 ✈ KMHT - KBWI

Flight Track Log - Related Links

Times and Time Zones

All times are in EDT time to prevent confusion due to time zone crossing. See the SWA1319 flight status page for this flight to view local times or setup timezone preferences in your user account.

Time Position Orientation Groundspeed Altitude Reporting Facility
EDT Latitude Longitude Course Direction KTS MPH feet Rate Location/Type
11:06AM 42.9167 -71.4167 160° South 164 189 1,100  Level KA90
11:06AM 42.8833 -71.4000 160° South 196 226 2,300 2,700 Climbing KA90
11:07AM 42.8500 -71.3333 124° Southeast 244 281 5,500 2,880 Climbing KA90
11:09AM 42.9772 -71.1972 38° Northeast 319 367 11,200 2,760 Climbing Boston Center
11:10AM 43.0472 -71.1219 38° Northeast 319 367 14,100 2,400 Climbing Boston Center
11:11AM 43.0644 -70.9992 79° East 308 354 16,200 1,980 Climbing Boston Center
11:12AM 42.9742 -70.9531 160° South 269 310 18,200 1,980 Climbing Boston Center
11:13AM 42.8806 -70.9525 180° South 296 341 20,200 1,680 Climbing Boston Center
11:14AM 42.7911 -70.9772 191° South 348 400 21,700 1,380 Climbing Boston Center
11:15AM 42.6833 -71.0308 200° South 371 427 23,000 1,200 Climbing Boston Center
11:16AM 42.5881 -71.0753 199° South 401 461 24,100 1,200 Climbing Boston Center
11:17AM 42.4681 -71.1342 200° South 419 482 25,500 1,200 Climbing Boston Center
11:18AM 42.3981 -71.2311 226° Southwest 406 467 26,600 1,680 Climbing Boston Center
11:19AM 42.3497 -71.3867 247° West 384 442 28,900 2,100 Climbing Boston Center
11:20AM 42.3092 -71.5164 247° West 384 442 30,900 1,560 Climbing Boston Center
11:21AM 42.2664 -71.6544 247° West 384 442 32,100 1,200 Climbing Boston Center
11:22AM 42.2256 -71.7842 247° West 384 442 33,300 840 Climbing Boston Center
11:23AM 42.1886 -71.8908 245° Southwest 389 448 33,800 300 Climbing Boston Center
11:24AM 42.1203 -72.0286 236° Southwest 389 448 34,000 60 Climbing Boston Center
11:25AM 42.0519 -72.1550 234° Southwest 409 471 34,000  Level Boston Center
11:26AM 41.9833 -72.2808 234° Southwest 427 491 34,000  Level Boston Center
11:27AM 41.9189 -72.4067 235° Southwest 427 491 34,000  Level Boston Center
11:28AM 41.8503 -72.5319 234° Southwest 427 491 34,000  Level Boston Center
11:29AM 41.7833 -72.6600 235° Southwest 427 491 34,000  Level Boston Center
11:30AM 41.7183 -72.7822 235° Southwest 427 491 34,000  Level Boston Center
11:31AM 41.6617 -72.8819 233° Southwest 427 491 34,000  Level Boston Center
11:32AM 41.5839 -73.0283 235° Southwest 427 491 34,000 -60 Level Boston Center
11:33AM 41.5186 -73.1497 234° Southwest 421 484 33,900 -60 Descending Boston Center
11:34AM 41.4511 -73.2736 234° Southwest 413 475 33,900  Level Boston Center
11:35AM 41.3878 -73.3947 235° Southwest 413 475 34,000  Climbing Boston Center
11:38AM 41.2411 -73.6517 233° Southwest 418 481 33,900 -60 Descending New York Center
11:38AM 41.1692 -73.7728 232° Southwest 418 481 33,900  Level New York Center
11:40AM 41.0975 -73.8933 232° Southwest 418 481 33,900  Level New York Center
11:41AM 41.0275 -74.0139 232° Southwest 423 487 33,900  Level New York Center
11:42AM 40.9553 -74.1342 232° Southwest 428 493 34,000 -600 Climbing New York Center
11:43AM 40.8767 -74.2592 230° Southwest 423 487 32,700 -1,560 Descending New York Center
11:44AM 40.8067 -74.3708 230° Southwest 418 481 30,900 -1,680 Descending New York Center
11:44AM 40.7364 -74.4903 232° Southwest 413 475 29,400 -1,500 Descending New York Center
11:45AM 40.6636 -74.6122 232° Southwest 424 488 28,000 -720 Descending New York Center
11:47AM 40.5889 -74.7336 231° Southwest 431 496 28,000 -60 Level New York Center
11:47AM 40.5122 -74.8439 228° Southwest 426 490 27,900 -420 Descending New York Center
11:48AM 40.4353 -74.9539 227° Southwest 416 479 27,200 -1,500 Descending New York Center
11:50AM 40.3631 -75.0556 227° Southwest 404 465 24,900 -2,220 Descending New York Center
11:50AM 40.2906 -75.1547 226° Southwest 393 452 22,800 -2,160 Descending New York Center
11:51AM 40.2244 -75.2511 228° Southwest 379 436 20,700 -2,040 Descending New York Center
11:52AM 40.1628 -75.3339 226° Southwest 361 415 18,700 -1,380 Descending New York Center
11:53AM 40.0903 -75.4294 225° Southwest 351 404 18,000 -360 Descending New York Center
11:55AM 40.0328 -75.5097 227° Southwest 346 398 18,000  Level New York Center
11:55AM 39.9622 -75.6106 228° Southwest 346 398 18,000  Level New York Center
11:57AM 39.9044 -75.6958 229° Southwest 353 406 18,000  Level New York Center
11:57AM 39.8453 -75.8108 236° Southwest 360 414 18,000 -1,260 Level New York Center
12:00PM 39.7333 -76.0333 237° Southwest 311 358 14,100 -1,800 Descending Potomac TRACON
12:01PM 39.6833 -76.1167 232° Southwest 303 349 12,300 -1,260 Descending Potomac TRACON
12:02PM 39.6500 -76.2000 243° Southwest 280 322 11,600 -1,140 Descending Potomac TRACON
12:03PM 39.6167 -76.3000 247° West 276 318 10,100 -1,560 Descending Potomac TRACON
12:04PM 39.5833 -76.3833 243° Southwest 263 303 8,500 -1,080 Descending Potomac TRACON
12:05PM 39.5667 -76.4667 255° West 257 296 8,000 -300 Descending Potomac TRACON
12:06PM 39.5667 -76.5667 270° West 264 304 8,000 -180 Level Potomac TRACON
12:07PM 39.5667 -76.6667 270° West 268 308 7,700 -900 Descending Potomac TRACON
12:08PM 39.5667 -76.7500 270° West 266 306 6,300 -1,380 Descending Potomac TRACON
12:09PM 39.5167 -76.8167 226° Southwest 244 281 5,000 -1,200 Descending Potomac TRACON
12:10PM 39.4667 -76.8833 226° Southwest 237 273 4,000 -540 Descending Potomac TRACON
12:11PM 39.4167 -76.9333 218° Southwest 231 266 4,000 -60 Level Potomac TRACON
12:12PM 39.3667 -76.9500 194° South 231 266 3,900 -240 Descending Potomac TRACON
12:13PM 39.3000 -76.9333 169° South 223 257 3,600 -720 Descending Potomac TRACON
12:14PM 39.2333 -76.9167 169° South 219 252 2,400 -780 Descending Potomac TRACON
12:15PM 39.1833 -76.8833 153° Southeast 201 231 2,000 -360 Descending Potomac TRACON
12:16PM 39.1833 -76.8167 90° East 207 238 1,800 -480 Descending Potomac TRACON
12:17PM 39.1833 -76.7500 90° East 158 182 1,100 -720 Descending Potomac TRACON
12:19PM 39.1667 -76.6667 270° West  Level FlightAware Approximate
12:26PM 39.1754 -76.6683 270° West  Level Estimated
12:27PM 39.1754 -76.6683 270° West  Level Estimated
12:28PM 39.1754 -76.6683 270° West  Level Estimated
12:29PM 39.1754 -76.6683 270° West  Level Estimated
12:30PM 39.1754 -76.6683 270° West  Level Estimated